sensor_id;sensor_type;location;lat;lon;timestamp;temperature;humidity
25320;DHT22;13256;49.012;8.610;2022-12-18T00:00:05;-6.00;99.90
25320;DHT22;13256;49.012;8.610;2022-12-18T00:02:58;-6.00;99.90
25320;DHT22;13256;49.012;8.610;2022-12-18T00:08:48;-6.00;99.90
25320;DHT22;13256;49.012;8.610;2022-12-18T00:11:16;-6.00;99.90
25320;DHT22;13256;49.012;8.610;2022-12-18T00:13:44;-6.00;99.90
25320;DHT22;13256;49.012;8.610;2022-12-18T00:16:15;-6.00;99.90
25320;DHT22;13256;49.012;8.610;2022-12-18T00:18:48;-6.00;99.90
25320;DHT22;13256;49.012;8.610;2022-12-18T00:21:15;-6.00;99.90
25320;DHT22;13256;49.012;8.610;2022-12-18T00:23:45;-6.00;99.90
25320;DHT22;13256;49.012;8.610;2022-12-18T00:26:20;-6.00;99.90
25320;DHT22;13256;49.012;8.610;2022-12-18T00:28:55;-5.90;99.90
25320;DHT22;13256;49.012;8.610;2022-12-18T00:31:24;-6.00;99.90
25320;DHT22;13256;49.012;8.610;2022-12-18T00:33:55;-6.00;99.90
25320;DHT22;13256;49.012;8.610;2022-12-18T00:36:24;-5.90;99.90
25320;DHT22;13256;49.012;8.610;2022-12-18T00:44:45;-6.00;99.90
25320;DHT22;13256;49.012;8.610;2022-12-18T00:47:12;-6.10;99.90
25320;DHT22;13256;49.012;8.610;2022-12-18T00:49:42;-6.00;99.90
25320;DHT22;13256;49.012;8.610;2022-12-18T00:52:09;-6.10;99.90
25320;DHT22;13256;49.012;8.610;2022-12-18T00:54:39;-6.10;99.90
25320;DHT22;13256;49.012;8.610;2022-12-18T00:57:06;-6.20;99.90
25320;DHT22;13256;49.012;8.610;2022-12-18T00:59:42;-6.20;99.90
25320;DHT22;13256;49.012;8.610;2022-12-18T01:02:11;-6.30;99.90
25320;DHT22;13256;49.012;8.610;2022-12-18T01:04:40;-6.30;99.90
25320;DHT22;13256;49.012;8.610;2022-12-18T01:07:07;-6.30;99.90
25320;DHT22;13256;49.012;8.610;2022-12-18T01:09:34;-6.20;99.90
25320;DHT22;13256;49.012;8.610;2022-12-18T01:12:01;-6.30;99.90
25320;DHT22;13256;49.012;8.610;2022-12-18T01:14:33;-6.20;99.90
25320;DHT22;13256;49.012;8.610;2022-12-18T01:17:03;-6.20;99.90
25320;DHT22;13256;49.012;8.610;2022-12-18T01:19:32;-6.20;99.90
25320;DHT22;13256;49.012;8.610;2022-12-18T01:22:07;-6.20;99.90
25320;DHT22;13256;49.012;8.610;2022-12-18T01:24:34;-6.10;99.90
25320;DHT22;13256;49.012;8.610;2022-12-18T01:27:02;-6.20;99.90
25320;DHT22;13256;49.012;8.610;2022-12-18T01:29:29;-6.20;99.90
25320;DHT22;13256;49.012;8.610;2022-12-18T01:31:56;-6.10;99.90
25320;DHT22;13256;49.012;8.610;2022-12-18T01:34:26;-6.10;99.90
25320;DHT22;13256;49.012;8.610;2022-12-18T01:36:53;-6.10;99.90
25320;DHT22;13256;49.012;8.610;2022-12-18T01:39:24;-6.10;99.90
25320;DHT22;13256;49.012;8.610;2022-12-18T01:41:51;-6.10;99.90
25320;DHT22;13256;49.012;8.610;2022-12-18T01:49:59;-6.20;99.90
25320;DHT22;13256;49.012;8.610;2022-12-18T01:52:30;-6.20;99.90
25320;DHT22;13256;49.012;8.610;2022-12-18T01:55:10;-6.20;99.90
25320;DHT22;13256;49.012;8.610;2022-12-18T01:57:38;-6.20;99.90
25320;DHT22;13256;49.012;8.610;2022-12-18T02:00:17;-6.20;99.90
25320;DHT22;13256;49.012;8.610;2022-12-18T02:02:47;-6.20;99.90
25320;DHT22;13256;49.012;8.610;2022-12-18T02:08:22;-6.20;99.90
25320;DHT22;13256;49.012;8.610;2022-12-18T02:27:46;-6.40;99.90
25320;DHT22;13256;49.012;8.610;2022-12-18T02:30:16;-6.40;99.90
25320;DHT22;13256;49.012;8.610;2022-12-18T02:32:47;-6.40;99.90
25320;DHT22;13256;49.012;8.610;2022-12-18T02:35:20;-6.50;99.90
25320;DHT22;13256;49.012;8.610;2022-12-18T02:37:56;-6.40;99.90
25320;DHT22;13256;49.012;8.610;2022-12-18T02:40:26;-6.40;99.90
25320;DHT22;13256;49.012;8.610;2022-12-18T02:42:54;-6.40;99.90
25320;DHT22;13256;49.012;8.610;2022-12-18T02:45:23;-6.40;99.90
25320;DHT22;13256;49.012;8.610;2022-12-18T02:47:52;-6.30;99.90
25320;DHT22;13256;49.012;8.610;2022-12-18T02:50:38;-6.30;99.90
25320;DHT22;13256;49.012;8.610;2022-12-18T02:53:27;-6.30;99.90
25320;DHT22;13256;49.012;8.610;2022-12-18T02:56:21;-6.30;99.90
25320;DHT22;13256;49.012;8.610;2022-12-18T03:02:03;-6.30;99.90
25320;DHT22;13256;49.012;8.610;2022-12-18T03:07:40;-6.30;99.90
25320;DHT22;13256;49.012;8.610;2022-12-18T03:10:16;-6.30;99.90
25320;DHT22;13256;49.012;8.610;2022-12-18T03:12:58;-6.30;99.90
25320;DHT22;13256;49.012;8.610;2022-12-18T03:15:31;-6.30;99.90
25320;DHT22;13256;49.012;8.610;2022-12-18T03:18:25;-6.30;99.90
25320;DHT22;13256;49.012;8.610;2022-12-18T03:20:58;-6.30;99.90
25320;DHT22;13256;49.012;8.610;2022-12-18T03:23:30;-6.30;99.90
25320;DHT22;13256;49.012;8.610;2022-12-18T03:26:10;-6.30;99.90
25320;DHT22;13256;49.012;8.610;2022-12-18T03:28:47;-6.30;99.90
25320;DHT22;13256;49.012;8.610;2022-12-18T03:31:21;-6.30;99.90
25320;DHT22;13256;49.012;8.610;2022-12-18T03:33:51;-6.30;99.90
25320;DHT22;13256;49.012;8.610;2022-12-18T03:36:18;-6.30;99.90
25320;DHT22;13256;49.012;8.610;2022-12-18T03:38:51;-6.40;99.90
25320;DHT22;13256;49.012;8.610;2022-12-18T03:41:47;-6.40;99.90
25320;DHT22;13256;49.012;8.610;2022-12-18T03:50:24;-6.40;99.90
25320;DHT22;13256;49.012;8.610;2022-12-18T03:55:48;-6.50;99.90
25320;DHT22;13256;49.012;8.610;2022-12-18T03:58:20;-6.50;99.90
25320;DHT22;13256;49.012;8.610;2022-12-18T04:01:06;-6.50;99.90
25320;DHT22;13256;49.012;8.610;2022-12-18T04:03:36;-6.50;99.90
25320;DHT22;13256;49.012;8.610;2022-12-18T04:06:06;-6.50;99.90
25320;DHT22;13256;49.012;8.610;2022-12-18T04:08:36;-6.50;99.90
25320;DHT22;13256;49.012;8.610;2022-12-18T04:11:07;-6.50;99.90
25320;DHT22;13256;49.012;8.610;2022-12-18T04:13:42;-6.50;99.90
25320;DHT22;13256;49.012;8.610;2022-12-18T04:16:19;-6.50;99.90
25320;DHT22;13256;49.012;8.610;2022-12-18T04:18:52;-6.50;99.90
25320;DHT22;13256;49.012;8.610;2022-12-18T04:21:22;-6.50;99.90
25320;DHT22;13256;49.012;8.610;2022-12-18T04:23:54;-6.50;99.90
25320;DHT22;13256;49.012;8.610;2022-12-18T04:26:22;-6.50;99.90
25320;DHT22;13256;49.012;8.610;2022-12-18T04:29:12;-6.50;99.90
25320;DHT22;13256;49.012;8.610;2022-12-18T04:31:39;-6.50;99.90
25320;DHT22;13256;49.012;8.610;2022-12-18T04:34:06;-6.50;99.90
25320;DHT22;13256;49.012;8.610;2022-12-18T04:36:40;-6.50;99.90
25320;DHT22;13256;49.012;8.610;2022-12-18T04:39:07;-6.50;99.90
25320;DHT22;13256;49.012;8.610;2022-12-18T04:41:34;-6.50;99.90
25320;DHT22;13256;49.012;8.610;2022-12-18T04:44:05;-6.50;99.90
25320;DHT22;13256;49.012;8.610;2022-12-18T04:46:31;-6.50;99.90
25320;DHT22;13256;49.012;8.610;2022-12-18T04:49:03;-6.50;99.90
25320;DHT22;13256;49.012;8.610;2022-12-18T04:51:32;-6.50;99.90
25320;DHT22;13256;49.012;8.610;2022-12-18T04:53:59;-6.50;99.90
25320;DHT22;13256;49.012;8.610;2022-12-18T04:56:25;-6.60;99.90
25320;DHT22;13256;49.012;8.610;2022-12-18T04:58:54;-6.60;99.90
25320;DHT22;13256;49.012;8.610;2022-12-18T05:01:21;-6.60;99.90
25320;DHT22;13256;49.012;8.610;2022-12-18T05:03:50;-6.60;99.90
25320;DHT22;13256;49.012;8.610;2022-12-18T05:06:17;-6.60;99.90
25320;DHT22;13256;49.012;8.610;2022-12-18T05:08:46;-6.70;99.90
25320;DHT22;13256;49.012;8.610;2022-12-18T05:11:15;-6.70;99.90
25320;DHT22;13256;49.012;8.610;2022-12-18T05:13:47;-6.70;99.90
25320;DHT22;13256;49.012;8.610;2022-12-18T05:16:19;-6.70;99.90
25320;DHT22;13256;49.012;8.610;2022-12-18T05:18:46;-6.80;99.90
25320;DHT22;13256;49.012;8.610;2022-12-18T05:21:15;-6.80;99.90
25320;DHT22;13256;49.012;8.610;2022-12-18T05:23:46;-6.80;99.90
25320;DHT22;13256;49.012;8.610;2022-12-18T05:26:17;-6.70;99.90
25320;DHT22;13256;49.012;8.610;2022-12-18T05:28:47;-6.70;99.90
25320;DHT22;13256;49.012;8.610;2022-12-18T05:31:14;-6.70;99.90
25320;DHT22;13256;49.012;8.610;2022-12-18T05:33:41;-6.70;99.90
25320;DHT22;13256;49.012;8.610;2022-12-18T05:36:09;-6.70;99.90
25320;DHT22;13256;49.012;8.610;2022-12-18T05:38:38;-6.70;99.90
25320;DHT22;13256;49.012;8.610;2022-12-18T05:41:06;-6.70;99.90
25320;DHT22;13256;49.012;8.610;2022-12-18T05:43:35;-6.80;99.90
25320;DHT22;13256;49.012;8.610;2022-12-18T05:46:12;-6.70;99.90
25320;DHT22;13256;49.012;8.610;2022-12-18T05:48:42;-6.80;99.90
25320;DHT22;13256;49.012;8.610;2022-12-18T05:51:12;-6.70;99.90
25320;DHT22;13256;49.012;8.610;2022-12-18T05:53:41;-6.70;99.90
25320;DHT22;13256;49.012;8.610;2022-12-18T05:56:19;-6.70;99.90
25320;DHT22;13256;49.012;8.610;2022-12-18T05:58:46;-6.80;99.90
25320;DHT22;13256;49.012;8.610;2022-12-18T06:01:21;-6.80;99.90
25320;DHT22;13256;49.012;8.610;2022-12-18T06:03:47;-6.90;99.90
25320;DHT22;13256;49.012;8.610;2022-12-18T06:06:23;-6.90;99.90
25320;DHT22;13256;49.012;8.610;2022-12-18T06:08:51;-6.90;99.90
25320;DHT22;13256;49.012;8.610;2022-12-18T06:11:23;-6.90;99.90
25320;DHT22;13256;49.012;8.610;2022-12-18T06:13:50;-6.90;99.90
25320;DHT22;13256;49.012;8.610;2022-12-18T06:16:27;-7.00;99.90
25320;DHT22;13256;49.012;8.610;2022-12-18T06:19:02;-7.00;99.90
25320;DHT22;13256;49.012;8.610;2022-12-18T06:21:30;-7.00;99.90
25320;DHT22;13256;49.012;8.610;2022-12-18T06:23:58;-7.00;99.90
25320;DHT22;13256;49.012;8.610;2022-12-18T06:26:26;-7.10;99.90
25320;DHT22;13256;49.012;8.610;2022-12-18T06:28:55;-7.10;99.90
25320;DHT22;13256;49.012;8.610;2022-12-18T06:31:22;-7.10;99.90
25320;DHT22;13256;49.012;8.610;2022-12-18T06:33:51;-7.10;99.90
25320;DHT22;13256;49.012;8.610;2022-12-18T06:36:18;-7.10;99.90
25320;DHT22;13256;49.012;8.610;2022-12-18T06:38:49;-7.10;99.90
25320;DHT22;13256;49.012;8.610;2022-12-18T06:41:18;-7.10;99.90
25320;DHT22;13256;49.012;8.610;2022-12-18T06:43:45;-7.20;99.90
25320;DHT22;13256;49.012;8.610;2022-12-18T06:46:14;-7.20;99.90
25320;DHT22;13256;49.012;8.610;2022-12-18T06:48:41;-7.20;99.90
25320;DHT22;13256;49.012;8.610;2022-12-18T06:51:10;-7.10;99.90
25320;DHT22;13256;49.012;8.610;2022-12-18T06:53:37;-7.10;99.90
25320;DHT22;13256;49.012;8.610;2022-12-18T06:56:06;-7.10;99.90
25320;DHT22;13256;49.012;8.610;2022-12-18T06:58:37;-7.20;99.90
25320;DHT22;13256;49.012;8.610;2022-12-18T07:01:10;-7.20;99.90
25320;DHT22;13256;49.012;8.610;2022-12-18T07:03:43;-7.30;99.90
25320;DHT22;13256;49.012;8.610;2022-12-18T07:06:18;-7.30;99.90
25320;DHT22;13256;49.012;8.610;2022-12-18T07:08:49;-7.30;99.90
25320;DHT22;13256;49.012;8.610;2022-12-18T07:11:22;-7.30;99.90
25320;DHT22;13256;49.012;8.610;2022-12-18T07:13:52;-7.30;99.90
25320;DHT22;13256;49.012;8.610;2022-12-18T07:16:20;-7.40;99.90
25320;DHT22;13256;49.012;8.610;2022-12-18T07:18:53;-7.50;99.90
25320;DHT22;13256;49.012;8.610;2022-12-18T07:21:23;-7.60;99.90
25320;DHT22;13256;49.012;8.610;2022-12-18T07:23:55;-7.60;99.90
25320;DHT22;13256;49.012;8.610;2022-12-18T07:26:22;-7.70;99.90
25320;DHT22;13256;49.012;8.610;2022-12-18T07:28:49;-7.70;99.90
25320;DHT22;13256;49.012;8.610;2022-12-18T07:31:18;-7.70;99.90
25320;DHT22;13256;49.012;8.610;2022-12-18T07:33:50;-7.70;99.90
25320;DHT22;13256;49.012;8.610;2022-12-18T07:36:18;-7.60;99.90
25320;DHT22;13256;49.012;8.610;2022-12-18T07:38:47;-7.60;99.90
25320;DHT22;13256;49.012;8.610;2022-12-18T07:41:16;-7.50;99.90
25320;DHT22;13256;49.012;8.610;2022-12-18T07:43:42;-7.40;99.90
25320;DHT22;13256;49.012;8.610;2022-12-18T07:46:13;-7.40;99.90
25320;DHT22;13256;49.012;8.610;2022-12-18T07:48:46;-7.50;99.90
25320;DHT22;13256;49.012;8.610;2022-12-18T07:51:40;-7.40;99.90
25320;DHT22;13256;49.012;8.610;2022-12-18T07:54:07;-7.70;99.90
25320;DHT22;13256;49.012;8.610;2022-12-18T07:56:36;-7.90;99.90
25320;DHT22;13256;49.012;8.610;2022-12-18T07:59:05;-7.90;99.90
25320;DHT22;13256;49.012;8.610;2022-12-18T08:01:33;-8.00;99.90
25320;DHT22;13256;49.012;8.610;2022-12-18T08:04:03;-8.10;99.90
25320;DHT22;13256;49.012;8.610;2022-12-18T08:06:32;-8.10;99.90
25320;DHT22;13256;49.012;8.610;2022-12-18T08:08:59;-8.20;99.90
25320;DHT22;13256;49.012;8.610;2022-12-18T08:11:27;-8.20;99.90
25320;DHT22;13256;49.012;8.610;2022-12-18T08:13:57;-8.10;99.90
25320;DHT22;13256;49.012;8.610;2022-12-18T08:16:24;-8.00;99.90
25320;DHT22;13256;49.012;8.610;2022-12-18T08:18:53;-8.00;99.90
25320;DHT22;13256;49.012;8.610;2022-12-18T08:21:26;-8.00;99.90
25320;DHT22;13256;49.012;8.610;2022-12-18T08:23:54;-7.90;99.90
25320;DHT22;13256;49.012;8.610;2022-12-18T08:26:22;-7.80;99.90
25320;DHT22;13256;49.012;8.610;2022-12-18T08:28:50;-7.60;99.90
25320;DHT22;13256;49.012;8.610;2022-12-18T08:31:18;-7.50;99.90
25320;DHT22;13256;49.012;8.610;2022-12-18T08:33:51;-7.40;99.90
25320;DHT22;13256;49.012;8.610;2022-12-18T08:36:19;-7.30;99.90
25320;DHT22;13256;49.012;8.610;2022-12-18T08:38:47;-7.20;99.90
25320;DHT22;13256;49.012;8.610;2022-12-18T08:41:19;-7.20;99.90
25320;DHT22;13256;49.012;8.610;2022-12-18T08:43:52;-7.10;99.90
25320;DHT22;13256;49.012;8.610;2022-12-18T08:46:40;-6.90;99.90
25320;DHT22;13256;49.012;8.610;2022-12-18T08:49:11;-6.70;99.90
25320;DHT22;13256;49.012;8.610;2022-12-18T08:51:40;-6.50;99.90
25320;DHT22;13256;49.012;8.610;2022-12-18T08:54:12;-6.20;99.90
25320;DHT22;13256;49.012;8.610;2022-12-18T08:56:43;-5.90;99.90
25320;DHT22;13256;49.012;8.610;2022-12-18T08:59:13;-5.70;99.90
25320;DHT22;13256;49.012;8.610;2022-12-18T09:01:57;-5.50;99.90
25320;DHT22;13256;49.012;8.610;2022-12-18T09:04:31;-5.10;99.90
25320;DHT22;13256;49.012;8.610;2022-12-18T09:06:58;-4.90;99.90
25320;DHT22;13256;49.012;8.610;2022-12-18T09:09:24;-4.70;99.90
25320;DHT22;13256;49.012;8.610;2022-12-18T09:11:57;-4.50;99.90
25320;DHT22;13256;49.012;8.610;2022-12-18T09:14:29;-4.60;99.90
25320;DHT22;13256;49.012;8.610;2022-12-18T09:16:55;-4.70;99.90
25320;DHT22;13256;49.012;8.610;2022-12-18T09:19:22;-4.80;99.90
25320;DHT22;13256;49.012;8.610;2022-12-18T09:21:49;-4.70;99.90
25320;DHT22;13256;49.012;8.610;2022-12-18T09:24:19;-4.60;99.90
25320;DHT22;13256;49.012;8.610;2022-12-18T09:26:48;-4.40;99.90
25320;DHT22;13256;49.012;8.610;2022-12-18T09:29:18;-4.10;99.90
25320;DHT22;13256;49.012;8.610;2022-12-18T09:31:47;-4.00;99.90
25320;DHT22;13256;49.012;8.610;2022-12-18T09:34:14;-4.00;99.90
25320;DHT22;13256;49.012;8.610;2022-12-18T09:36:47;-4.10;99.90
25320;DHT22;13256;49.012;8.610;2022-12-18T09:39:15;-4.00;99.90
25320;DHT22;13256;49.012;8.610;2022-12-18T09:41:50;-3.70;99.90
25320;DHT22;13256;49.012;8.610;2022-12-18T09:49:56;-3.90;99.90
25320;DHT22;13256;49.012;8.610;2022-12-18T09:52:34;-3.90;99.90
25320;DHT22;13256;49.012;8.610;2022-12-18T09:55:28;-3.80;99.90
25320;DHT22;13256;49.012;8.610;2022-12-18T09:58:15;-3.80;99.90
25320;DHT22;13256;49.012;8.610;2022-12-18T10:00:47;-3.50;99.90
25320;DHT22;13256;49.012;8.610;2022-12-18T10:03:15;-3.10;99.90
25320;DHT22;13256;49.012;8.610;2022-12-18T10:19:36;-1.00;99.90
25320;DHT22;13256;49.012;8.610;2022-12-18T10:27:54;-0.50;99.90
25320;DHT22;13256;49.012;8.610;2022-12-18T10:30:23;-0.50;99.90
25320;DHT22;13256;49.012;8.610;2022-12-18T10:32:52;-0.40;99.90
25320;DHT22;13256;49.012;8.610;2022-12-18T10:35:25;-0.20;99.90
25320;DHT22;13256;49.012;8.610;2022-12-18T10:38:06;-0.10;99.90
25320;DHT22;13256;49.012;8.610;2022-12-18T10:40:50;0.20;99.90
25320;DHT22;13256;49.012;8.610;2022-12-18T10:48:55;0.70;99.90
25320;DHT22;13256;49.012;8.610;2022-12-18T10:54:01;1.20;99.90
25320;DHT22;13256;49.012;8.610;2022-12-18T10:56:33;0.80;99.90
25320;DHT22;13256;49.012;8.610;2022-12-18T10:59:07;0.60;99.90
25320;DHT22;13256;49.012;8.610;2022-12-18T11:04:54;0.90;99.90
25320;DHT22;13256;49.012;8.610;2022-12-18T11:07:21;1.30;99.90
25320;DHT22;13256;49.012;8.610;2022-12-18T11:10:02;1.20;99.90
25320;DHT22;13256;49.012;8.610;2022-12-18T11:12:29;1.20;99.90
25320;DHT22;13256;49.012;8.610;2022-12-18T11:14:59;0.80;99.90
25320;DHT22;13256;49.012;8.610;2022-12-18T11:17:35;0.60;99.90
25320;DHT22;13256;49.012;8.610;2022-12-18T11:20:07;0.40;99.90
25320;DHT22;13256;49.012;8.610;2022-12-18T11:22:57;0.40;99.90
25320;DHT22;13256;49.012;8.610;2022-12-18T11:25:28;0.70;99.90
25320;DHT22;13256;49.012;8.610;2022-12-18T11:34:26;0.90;99.90
25320;DHT22;13256;49.012;8.610;2022-12-18T11:36:59;0.90;99.90
25320;DHT22;13256;49.012;8.610;2022-12-18T11:39:54;1.20;99.90
25320;DHT22;13256;49.012;8.610;2022-12-18T11:45:18;1.30;99.90
25320;DHT22;13256;49.012;8.610;2022-12-18T11:48:12;1.20;99.90
25320;DHT22;13256;49.012;8.610;2022-12-18T11:50:54;1.20;99.90
25320;DHT22;13256;49.012;8.610;2022-12-18T11:53:23;1.30;99.90
25320;DHT22;13256;49.012;8.610;2022-12-18T11:59:14;0.90;99.90
25320;DHT22;13256;49.012;8.610;2022-12-18T12:01:52;1.10;99.90
25320;DHT22;13256;49.012;8.610;2022-12-18T12:04:44;1.00;99.90
25320;DHT22;13256;49.012;8.610;2022-12-18T12:10:18;0.70;99.90
25320;DHT22;13256;49.012;8.610;2022-12-18T12:13:10;0.80;99.90
25320;DHT22;13256;49.012;8.610;2022-12-18T12:21:17;1.00;99.90
25320;DHT22;13256;49.012;8.610;2022-12-18T12:41:08;0.70;99.90
25320;DHT22;13256;49.012;8.610;2022-12-18T12:43:58;0.70;99.90
25320;DHT22;13256;49.012;8.610;2022-12-18T12:46:31;0.90;99.90
25320;DHT22;13256;49.012;8.610;2022-12-18T12:49:02;0.90;99.90
25320;DHT22;13256;49.012;8.610;2022-12-18T12:51:40;0.80;99.90
25320;DHT22;13256;49.012;8.610;2022-12-18T12:54:25;0.70;99.90
25320;DHT22;13256;49.012;8.610;2022-12-18T13:03:22;0.60;99.90
25320;DHT22;13256;49.012;8.610;2022-12-18T13:20:41;1.60;99.90
25320;DHT22;13256;49.012;8.610;2022-12-18T13:25:51;1.70;99.90
25320;DHT22;13256;49.012;8.610;2022-12-18T13:30:56;1.90;99.90
25320;DHT22;13256;49.012;8.610;2022-12-18T13:33:45;1.90;99.90
25320;DHT22;13256;49.012;8.610;2022-12-18T13:36:35;1.70;99.90
25320;DHT22;13256;49.012;8.610;2022-12-18T13:39:24;1.70;99.90
25320;DHT22;13256;49.012;8.610;2022-12-18T13:47:37;1.50;99.90
25320;DHT22;13256;49.012;8.610;2022-12-18T13:53:21;1.20;99.90
25320;DHT22;13256;49.012;8.610;2022-12-18T13:55:49;1.10;99.90
25320;DHT22;13256;49.012;8.610;2022-12-18T13:58:16;1.00;99.90
25320;DHT22;13256;49.012;8.610;2022-12-18T14:00:44;0.80;99.90
25320;DHT22;13256;49.012;8.610;2022-12-18T14:03:21;0.50;99.90
25320;DHT22;13256;49.012;8.610;2022-12-18T14:05:56;0.30;99.90
25320;DHT22;13256;49.012;8.610;2022-12-18T14:08:26;0.20;99.90
25320;DHT22;13256;49.012;8.610;2022-12-18T14:10:55;0.10;99.90
25320;DHT22;13256;49.012;8.610;2022-12-18T14:13:36;0.00;99.90
25320;DHT22;13256;49.012;8.610;2022-12-18T14:16:06;-0.20;99.90
25320;DHT22;13256;49.012;8.610;2022-12-18T14:18:50;-0.20;99.90
25320;DHT22;13256;49.012;8.610;2022-12-18T14:21:22;-0.20;99.90
25320;DHT22;13256;49.012;8.610;2022-12-18T14:24:23;-0.30;99.90
25320;DHT22;13256;49.012;8.610;2022-12-18T14:26:50;-0.40;99.90
25320;DHT22;13256;49.012;8.610;2022-12-18T14:34:30;-0.50;99.90
25320;DHT22;13256;49.012;8.610;2022-12-18T14:36:57;-0.50;99.90
25320;DHT22;13256;49.012;8.610;2022-12-18T14:39:30;-0.40;99.90
25320;DHT22;13256;49.012;8.610;2022-12-18T14:41:59;-0.50;99.90
25320;DHT22;13256;49.012;8.610;2022-12-18T14:44:26;-0.50;99.90
25320;DHT22;13256;49.012;8.610;2022-12-18T14:47:16;-0.50;99.90
25320;DHT22;13256;49.012;8.610;2022-12-18T14:49:43;-0.60;99.90
25320;DHT22;13256;49.012;8.610;2022-12-18T14:52:26;-0.60;99.90
25320;DHT22;13256;49.012;8.610;2022-12-18T14:54:56;-0.60;99.90
25320;DHT22;13256;49.012;8.610;2022-12-18T14:57:42;-0.60;99.90
25320;DHT22;13256;49.012;8.610;2022-12-18T15:00:17;-0.60;99.90
25320;DHT22;13256;49.012;8.610;2022-12-18T15:02:58;-0.60;99.90
25320;DHT22;13256;49.012;8.610;2022-12-18T15:05:30;-0.70;99.90
25320;DHT22;13256;49.012;8.610;2022-12-18T15:07:59;-0.60;99.90
25320;DHT22;13256;49.012;8.610;2022-12-18T15:10:32;-0.70;99.90
25320;DHT22;13256;49.012;8.610;2022-12-18T15:20:56;-0.90;99.90
25320;DHT22;13256;49.012;8.610;2022-12-18T15:23:28;-0.90;99.90
25320;DHT22;13256;49.012;8.610;2022-12-18T15:26:02;-1.10;99.90
25320;DHT22;13256;49.012;8.610;2022-12-18T15:31:33;-1.20;99.90
25320;DHT22;13256;49.012;8.610;2022-12-18T15:36:34;-1.30;99.90
25320;DHT22;13256;49.012;8.610;2022-12-18T15:39:03;-1.40;99.90
25320;DHT22;13256;49.012;8.610;2022-12-18T15:41:35;-1.40;99.90
25320;DHT22;13256;49.012;8.610;2022-12-18T15:44:16;-1.50;99.90
25320;DHT22;13256;49.012;8.610;2022-12-18T15:46:49;-1.50;99.90
25320;DHT22;13256;49.012;8.610;2022-12-18T15:49:31;-1.50;99.90
25320;DHT22;13256;49.012;8.610;2022-12-18T15:51:59;-1.50;99.90
25320;DHT22;13256;49.012;8.610;2022-12-18T15:54:30;-1.50;99.90
25320;DHT22;13256;49.012;8.610;2022-12-18T15:57:17;-1.60;99.90
25320;DHT22;13256;49.012;8.610;2022-12-18T15:59:52;-1.50;99.90
25320;DHT22;13256;49.012;8.610;2022-12-18T16:02:20;-1.50;99.90
25320;DHT22;13256;49.012;8.610;2022-12-18T16:04:50;-1.50;99.90
25320;DHT22;13256;49.012;8.610;2022-12-18T16:07:18;-1.50;99.90
25320;DHT22;13256;49.012;8.610;2022-12-18T16:09:52;-1.60;99.90
25320;DHT22;13256;49.012;8.610;2022-12-18T16:12:22;-1.60;99.90
25320;DHT22;13256;49.012;8.610;2022-12-18T16:14:51;-1.60;99.90
25320;DHT22;13256;49.012;8.610;2022-12-18T16:17:17;-1.50;99.90
25320;DHT22;13256;49.012;8.610;2022-12-18T16:19:44;-1.50;99.90
25320;DHT22;13256;49.012;8.610;2022-12-18T16:22:19;-1.50;99.90
25320;DHT22;13256;49.012;8.610;2022-12-18T16:24:49;-1.50;99.90
25320;DHT22;13256;49.012;8.610;2022-12-18T16:27:16;-1.50;99.90
25320;DHT22;13256;49.012;8.610;2022-12-18T16:29:44;-1.50;99.90
25320;DHT22;13256;49.012;8.610;2022-12-18T16:32:18;-1.50;99.90
25320;DHT22;13256;49.012;8.610;2022-12-18T16:34:46;-1.50;99.90
25320;DHT22;13256;49.012;8.610;2022-12-18T16:37:14;-1.50;99.90
25320;DHT22;13256;49.012;8.610;2022-12-18T16:39:42;-1.40;99.90
25320;DHT22;13256;49.012;8.610;2022-12-18T16:42:14;-1.40;99.90
25320;DHT22;13256;49.012;8.610;2022-12-18T16:44:46;-1.40;99.90
25320;DHT22;13256;49.012;8.610;2022-12-18T16:47:13;-1.40;99.90
25320;DHT22;13256;49.012;8.610;2022-12-18T16:49:42;-1.40;99.90
25320;DHT22;13256;49.012;8.610;2022-12-18T16:52:12;-1.40;99.90
25320;DHT22;13256;49.012;8.610;2022-12-18T16:54:44;-1.40;99.90
25320;DHT22;13256;49.012;8.610;2022-12-18T16:57:17;-1.40;99.90
25320;DHT22;13256;49.012;8.610;2022-12-18T16:59:52;-1.40;99.90
25320;DHT22;13256;49.012;8.610;2022-12-18T17:02:21;-1.40;99.90
25320;DHT22;13256;49.012;8.610;2022-12-18T17:04:53;-1.40;99.90
25320;DHT22;13256;49.012;8.610;2022-12-18T17:07:22;-1.40;99.90
25320;DHT22;13256;49.012;8.610;2022-12-18T17:09:49;-1.40;99.90
25320;DHT22;13256;49.012;8.610;2022-12-18T17:12:17;-1.40;99.90
25320;DHT22;13256;49.012;8.610;2022-12-18T17:14:43;-1.40;99.90
25320;DHT22;13256;49.012;8.610;2022-12-18T17:17:13;-1.50;99.90
25320;DHT22;13256;49.012;8.610;2022-12-18T17:19:50;-1.50;99.90
25320;DHT22;13256;49.012;8.610;2022-12-18T17:22:19;-1.50;99.90
25320;DHT22;13256;49.012;8.610;2022-12-18T17:24:46;-1.50;99.90
25320;DHT22;13256;49.012;8.610;2022-12-18T17:27:14;-1.50;99.90
25320;DHT22;13256;49.012;8.610;2022-12-18T17:29:43;-1.50;99.90
25320;DHT22;13256;49.012;8.610;2022-12-18T17:32:16;-1.50;99.90
25320;DHT22;13256;49.012;8.610;2022-12-18T17:34:45;-1.50;99.90
25320;DHT22;13256;49.012;8.610;2022-12-18T17:37:12;-1.50;99.90
25320;DHT22;13256;49.012;8.610;2022-12-18T17:39:39;-1.50;99.90
25320;DHT22;13256;49.012;8.610;2022-12-18T17:42:06;-1.60;99.90
25320;DHT22;13256;49.012;8.610;2022-12-18T17:44:37;-1.60;99.90
25320;DHT22;13256;49.012;8.610;2022-12-18T17:47:06;-1.60;99.90
25320;DHT22;13256;49.012;8.610;2022-12-18T17:49:33;-1.60;99.90
25320;DHT22;13256;49.012;8.610;2022-12-18T17:52:02;-1.60;99.90
25320;DHT22;13256;49.012;8.610;2022-12-18T17:54:31;-1.60;99.90
25320;DHT22;13256;49.012;8.610;2022-12-18T17:57:01;-1.60;99.90
25320;DHT22;13256;49.012;8.610;2022-12-18T17:59:33;-1.60;99.90
25320;DHT22;13256;49.012;8.610;2022-12-18T18:02:02;-1.60;99.90
25320;DHT22;13256;49.012;8.610;2022-12-18T18:04:29;-1.60;99.90
25320;DHT22;13256;49.012;8.610;2022-12-18T18:06:59;-1.60;99.90
25320;DHT22;13256;49.012;8.610;2022-12-18T18:09:26;-1.60;99.90
25320;DHT22;13256;49.012;8.610;2022-12-18T18:11:53;-1.60;99.90
25320;DHT22;13256;49.012;8.610;2022-12-18T18:14:39;-1.60;99.90
25320;DHT22;13256;49.012;8.610;2022-12-18T18:17:08;-1.60;99.90
25320;DHT22;13256;49.012;8.610;2022-12-18T18:19:40;-1.60;99.90
25320;DHT22;13256;49.012;8.610;2022-12-18T18:22:09;-1.60;99.90
25320;DHT22;13256;49.012;8.610;2022-12-18T18:24:38;-1.60;99.90
25320;DHT22;13256;49.012;8.610;2022-12-18T18:27:05;-1.60;99.90
25320;DHT22;13256;49.012;8.610;2022-12-18T18:29:34;-1.60;99.90
25320;DHT22;13256;49.012;8.610;2022-12-18T18:32:07;-1.60;99.90
25320;DHT22;13256;49.012;8.610;2022-12-18T18:34:36;-1.50;99.90
25320;DHT22;13256;49.012;8.610;2022-12-18T18:37:07;-1.60;99.90
25320;DHT22;13256;49.012;8.610;2022-12-18T18:39:37;-1.60;99.90
25320;DHT22;13256;49.012;8.610;2022-12-18T18:42:06;-1.60;99.90
25320;DHT22;13256;49.012;8.610;2022-12-18T18:44:38;-1.70;99.90
25320;DHT22;13256;49.012;8.610;2022-12-18T18:47:05;-1.70;99.90
25320;DHT22;13256;49.012;8.610;2022-12-18T18:49:38;-1.70;99.90
25320;DHT22;13256;49.012;8.610;2022-12-18T18:52:05;-1.70;99.90
25320;DHT22;13256;49.012;8.610;2022-12-18T18:54:32;-1.70;99.90
25320;DHT22;13256;49.012;8.610;2022-12-18T18:57:00;-1.70;99.90
25320;DHT22;13256;49.012;8.610;2022-12-18T18:59:47;-1.80;99.90